createdAt,value
2023-02-01T00:02:20.450Z,101814.97
2023-02-01T00:04:46.766Z,101808.78
2023-02-01T00:07:14.440Z,101814.63
2023-02-01T00:09:42.166Z,101812.94
2023-02-01T00:12:08.528Z,101806.25
2023-02-01T00:14:34.813Z,101806.09
2023-02-01T00:17:01.096Z,101792.09
2023-02-01T00:19:27.409Z,101800.59
2023-02-01T00:21:53.719Z,101810.19
2023-02-01T00:24:20.032Z,101805.78
2023-02-01T00:26:47.796Z,101806.25
2023-02-01T00:29:15.905Z,101797.69
2023-02-01T00:31:42.732Z,101784.53
2023-02-01T00:34:10.324Z,101756.06
2023-02-01T00:36:36.654Z,101753.63
2023-02-01T00:39:03.113Z,101771.59
2023-02-01T00:41:29.434Z,101773.50
2023-02-01T00:43:57.120Z,101774.72
2023-02-01T00:46:23.714Z,101777.25
2023-02-01T00:48:50.201Z,101770.88
2023-02-01T00:51:20.242Z,101774.00
2023-02-01T00:53:46.700Z,101772.66
2023-02-01T00:56:13.432Z,101774.44
2023-02-01T00:58:39.860Z,101787.16
2023-02-01T01:01:08.450Z,101800.81
2023-02-01T01:03:36.061Z,101801.94
2023-02-01T01:06:04.649Z,101802.03
2023-02-01T01:08:31.246Z,101793.47
2023-02-01T01:10:57.611Z,101799.56
2023-02-01T01:13:24.287Z,101791.97
2023-02-01T01:15:50.653Z,101792.16
2023-02-01T01:18:18.383Z,101787.16
2023-02-01T01:20:44.767Z,101799.19
2023-02-01T01:23:11.097Z,101796.56
2023-02-01T01:25:38.581Z,101802.84
2023-02-01T01:28:05.005Z,101799.03
2023-02-01T01:30:31.429Z,101793.75
2023-02-01T01:32:57.764Z,101781.34
2023-02-01T01:35:27.227Z,101790.38
2023-02-01T01:37:53.572Z,101783.81
2023-02-01T01:40:20.056Z,101785.69
2023-02-01T01:42:46.621Z,101786.50
2023-02-01T01:45:20.596Z,101784.44
2023-02-01T01:47:49.141Z,101790.81
2023-02-01T01:50:17.023Z,101788.09
2023-02-01T01:52:47.398Z,101790.38
2023-02-01T01:55:14.588Z,101787.25
2023-02-01T01:57:43.087Z,101790.28
2023-02-01T02:00:12.319Z,101789.44
2023-02-01T02:02:39.662Z,101798.53
2023-02-01T02:05:06.362Z,101806.75
2023-02-01T02:10:02.926Z,101790.09
2023-02-01T02:12:29.548Z,101804.38
2023-02-01T02:14:56.336Z,101791.59
2023-02-01T02:17:31.120Z,101797.31
2023-02-01T02:20:11.371Z,101781.34
2023-02-01T02:22:54.348Z,101769.03
2023-02-01T02:25:36.647Z,101769.22
2023-02-01T02:28:14.066Z,101779.44
2023-02-01T02:30:52.589Z,101761.50
2023-02-01T02:33:36.543Z,101771.78
2023-02-01T02:36:07.462Z,101761.03
2023-02-01T02:38:37.952Z,101739.78
2023-02-01T02:41:07.787Z,101749.56
2023-02-01T02:43:36.932Z,101743.06
2023-02-01T02:46:05.862Z,101729.06
2023-02-01T02:48:37.304Z,101743.88
2023-02-01T02:51:08.432Z,101740.22
2023-02-01T02:53:38.568Z,101746.91
2023-02-01T02:56:07.417Z,101739.09
2023-02-01T02:58:33.903Z,101733.94
2023-02-01T03:01:00.507Z,101732.56
2023-02-01T03:03:27.478Z,101744.53
2023-02-01T03:05:53.934Z,101730.50
2023-02-01T03:08:23.042Z,101734.16
2023-02-01T03:10:52.801Z,101733.50
2023-02-01T03:13:24.166Z,101742.31
2023-02-01T03:15:52.581Z,101727.88
2023-02-01T03:18:21.484Z,101724.88
2023-02-01T03:20:49.919Z,101726.28
2023-02-01T03:23:19.017Z,101722.91
2023-02-01T03:25:48.363Z,101721.91
2023-02-01T03:28:16.424Z,101711.47
2023-02-01T03:30:43.890Z,101722.94
2023-02-01T03:33:12.024Z,101723.03
2023-02-01T03:35:40.548Z,101727.13
2023-02-01T03:38:22.094Z,101738.06
2023-02-01T03:40:52.779Z,101737.22
2023-02-01T03:43:20.407Z,101744.38
2023-02-01T03:45:49.665Z,101744.38
2023-02-01T03:48:17.673Z,101734.13
2023-02-01T03:50:47.861Z,101726.78
2023-02-01T03:53:15.828Z,101717.28
2023-02-01T03:55:42.712Z,101723.31
2023-02-01T03:58:12.520Z,101727.81
2023-02-01T04:00:39.334Z,101712.78
2023-02-01T04:03:06.907Z,101710.88
2023-02-01T04:05:33.233Z,101725.09
2023-02-01T04:07:59.655Z,101733.47
2023-02-01T04:10:26.362Z,101727.63
2023-02-01T04:12:52.737Z,101726.22
2023-02-01T04:15:20.460Z,101728.66
2023-02-01T04:17:46.805Z,101728.06
2023-02-01T04:20:13.227Z,101728.38
2023-02-01T04:22:39.604Z,101697.25
2023-02-01T04:25:06.573Z,101703.09
2023-02-01T04:27:32.916Z,101694.16
2023-02-01T04:29:59.297Z,101692.84
2023-02-01T04:32:26.980Z,101691.06
2023-02-01T04:34:53.344Z,101684.56
2023-02-01T04:37:19.724Z,101700.72
2023-02-01T04:39:46.042Z,101713.28
2023-02-01T04:42:12.357Z,101708.94
2023-02-01T04:44:38.727Z,101717.13
2023-02-01T04:47:05.056Z,101712.25
2023-02-01T04:49:32.744Z,101706.16
2023-02-01T04:51:59.080Z,101700.03
2023-02-01T04:54:25.701Z,101714.97
2023-02-01T04:56:52.053Z,101711.19
2023-02-01T04:59:18.373Z,101713.75
2023-02-01T05:01:44.682Z,101718.47
2023-02-01T05:04:11.013Z,101716.88
2023-02-01T05:06:38.692Z,101722.97
2023-02-01T05:09:05.050Z,101716.09
2023-02-01T05:14:11.751Z,101728.50
2023-02-01T05:16:38.093Z,101728.81
2023-02-01T05:19:06.580Z,101736.31
2023-02-01T05:21:33.026Z,101729.66
2023-02-01T05:24:03.119Z,101726.09
2023-02-01T05:26:29.633Z,101721.47
2023-02-01T05:28:55.945Z,101716.78
2023-02-01T05:31:22.644Z,101724.22
2023-02-01T05:33:49.080Z,101712.19
2023-02-01T05:36:15.625Z,101710.97
2023-02-01T05:38:42.015Z,101715.94
2023-02-01T05:41:09.742Z,101713.88
2023-02-01T05:43:36.057Z,101707.50
2023-02-01T05:46:02.426Z,101705.06
2023-02-01T05:48:28.749Z,101703.63
2023-02-01T05:50:55.081Z,101712.38
2023-02-01T05:53:21.511Z,101717.03
2023-02-01T05:55:47.819Z,101715.16
2023-02-01T05:58:15.478Z,101706.41
2023-02-01T06:00:41.796Z,101718.91
2023-02-01T06:03:08.099Z,101711.66
2023-02-01T06:05:34.428Z,101715.94
2023-02-01T06:08:00.762Z,101726.44
2023-02-01T06:10:27.129Z,101730.00
2023-02-01T06:12:53.459Z,101738.94
2023-02-01T06:15:21.152Z,101736.38
2023-02-01T06:17:47.451Z,101733.06
2023-02-01T06:20:14.764Z,101719.78
2023-02-01T06:22:41.147Z,101729.38
2023-02-01T06:25:08.974Z,101729.06
2023-02-01T06:27:35.312Z,101727.59
2023-02-01T06:30:01.638Z,101726.63
2023-02-01T06:32:29.300Z,101712.66
2023-02-01T06:34:55.627Z,101718.59
2023-02-01T06:37:22.188Z,101716.22
2023-02-01T06:39:48.473Z,101725.53
2023-02-01T06:42:14.773Z,101721.50
2023-02-01T06:44:41.072Z,101728.47
2023-02-01T06:47:09.245Z,101740.50
2023-02-01T06:49:37.096Z,101740.25
2023-02-01T06:52:03.708Z,101739.00
2023-02-01T06:54:30.079Z,101753.34
2023-02-01T06:56:56.402Z,101750.00
2023-02-01T06:59:22.791Z,101755.41
2023-02-01T07:01:49.144Z,101754.66
2023-02-01T07:04:15.593Z,101749.59
2023-02-01T07:06:43.234Z,101743.50
2023-02-01T07:09:09.542Z,101735.59
2023-02-01T07:11:35.832Z,101738.56
2023-02-01T07:14:02.116Z,101739.69
2023-02-01T07:16:28.483Z,101738.94
2023-02-01T07:18:54.780Z,101741.69
2023-02-01T07:21:21.128Z,101734.69
2023-02-01T07:23:48.908Z,101737.66
2023-02-01T07:26:15.828Z,101741.31
2023-02-01T07:28:42.427Z,101732.81
2023-02-01T07:31:09.842Z,101737.22
2023-02-01T07:33:36.326Z,101730.16
2023-02-01T07:36:03.437Z,101738.50
2023-02-01T07:38:30.028Z,101742.25
2023-02-01T07:40:59.587Z,101743.50
2023-02-01T07:43:26.165Z,101745.41
2023-02-01T07:45:53.185Z,101745.41
2023-02-01T07:48:19.756Z,101753.69
2023-02-01T07:50:46.090Z,101754.63
2023-02-01T07:53:12.442Z,101760.66
2023-02-01T07:55:38.799Z,101756.59
2023-02-01T07:58:06.518Z,101760.75
2023-02-01T08:00:32.900Z,101752.53
2023-02-01T08:02:59.222Z,101758.97
2023-02-01T08:05:25.548Z,101755.94
2023-02-01T08:07:51.948Z,101757.13
2023-02-01T08:10:18.417Z,101757.19
2023-02-01T08:12:45.065Z,101753.47
2023-02-01T08:15:13.007Z,101757.81
2023-02-01T08:17:39.348Z,101763.75
2023-02-01T08:20:06.235Z,101773.41
2023-02-01T08:22:32.696Z,101776.63
2023-02-01T08:24:59.011Z,101773.13
2023-02-01T08:27:25.321Z,101786.31
2023-02-01T08:29:51.843Z,101789.09
2023-02-01T08:32:19.565Z,101787.66
2023-02-01T08:34:45.895Z,101784.28
2023-02-01T08:37:12.265Z,101782.22
2023-02-01T08:39:38.590Z,101780.75
2023-02-01T08:42:04.925Z,101784.72
2023-02-01T08:44:31.246Z,101784.09
2023-02-01T08:46:57.537Z,101785.78
2023-02-01T08:49:25.168Z,101783.75
2023-02-01T08:51:51.473Z,101792.50
2023-02-01T08:54:17.820Z,101790.41
2023-02-01T08:56:44.155Z,101791.94
2023-02-01T08:59:10.449Z,101795.75
2023-02-01T09:01:36.841Z,101788.59
2023-02-01T09:04:03.189Z,101788.41
2023-02-01T09:06:30.834Z,101780.53
2023-02-01T09:08:57.171Z,101787.78
2023-02-01T09:11:23.494Z,101780.50
2023-02-01T09:13:49.906Z,101771.31
2023-02-01T09:16:17.138Z,101779.69
2023-02-01T09:18:55.436Z,101761.84
2023-02-01T09:21:28.082Z,101758.34
2023-02-01T09:23:55.827Z,101768.34
2023-02-01T09:26:26.565Z,101753.50
2023-02-01T09:28:57.564Z,101760.72
2023-02-01T09:31:24.022Z,101753.38
2023-02-01T09:33:50.400Z,101746.63
2023-02-01T09:36:16.722Z,101747.88
2023-02-01T09:38:52.313Z,101744.28
2023-02-01T09:41:25.390Z,101743.03
2023-02-01T09:43:56.968Z,101753.47
2023-02-01T09:46:25.269Z,101746.28
2023-02-01T09:48:54.299Z,101752.50
2023-02-01T09:51:23.412Z,101748.72
2023-02-01T09:53:56.220Z,101758.00
2023-02-01T09:56:26.683Z,101760.13
2023-02-01T09:58:56.324Z,101762.59
2023-02-01T10:01:24.195Z,101764.66
2023-02-01T10:03:51.185Z,101755.25
2023-02-01T10:06:24.637Z,101762.22
2023-02-01T10:08:58.885Z,101743.06
2023-02-01T10:11:32.044Z,101746.47
2023-02-01T10:14:03.834Z,101741.69
2023-02-01T10:16:35.674Z,101742.28
2023-02-01T10:19:14.268Z,101743.44
2023-02-01T10:21:46.464Z,101741.56
2023-02-01T10:24:19.086Z,101754.88
2023-02-01T10:26:50.387Z,101747.47
2023-02-01T10:29:17.803Z,101759.81
2023-02-01T10:31:44.205Z,101756.22
2023-02-01T10:34:16.809Z,101765.41
2023-02-01T10:36:48.704Z,101765.00
2023-02-01T10:39:15.615Z,101758.75
2023-02-01T10:41:42.460Z,101761.28
2023-02-01T10:44:13.995Z,101766.94
2023-02-01T10:46:40.512Z,101771.38
2023-02-01T10:49:12.685Z,101778.78
2023-02-01T10:51:43.066Z,101766.84
2023-02-01T10:54:12.323Z,101765.16
2023-02-01T10:56:39.265Z,101764.22
2023-02-01T10:59:06.706Z,101763.38
2023-02-01T11:01:38.412Z,101758.94
2023-02-01T11:04:05.247Z,101747.75
2023-02-01T11:06:33.567Z,101734.41
2023-02-01T11:09:01.269Z,101743.19
2023-02-01T11:11:27.847Z,101734.94
2023-02-01T11:13:55.682Z,101749.25
2023-02-01T11:16:22.635Z,101746.47
2023-02-01T11:18:54.526Z,101736.75
2023-02-01T11:21:21.448Z,101736.66
2023-02-01T11:23:48.040Z,101734.94
2023-02-01T11:26:15.908Z,101721.50
2023-02-01T11:28:52.030Z,101720.53
2023-02-01T11:31:19.212Z,101715.47
2023-02-01T11:33:48.961Z,101708.13
2023-02-01T11:36:18.095Z,101715.81
2023-02-01T11:38:47.260Z,101701.28
2023-02-01T11:41:14.513Z,101694.53
2023-02-01T11:43:51.907Z,101715.50
2023-02-01T11:46:19.659Z,101707.03
2023-02-01T11:48:45.978Z,101702.84
2023-02-01T11:51:21.113Z,101695.34
2023-02-01T11:53:58.112Z,101699.22
2023-02-01T11:56:28.570Z,101694.41
2023-02-01T11:59:03.466Z,101697.56
2023-02-01T12:01:44.684Z,101692.84
2023-02-01T12:04:24.254Z,101682.03
2023-02-01T12:06:53.351Z,101686.13
2023-02-01T12:09:26.743Z,101705.13
2023-02-01T12:11:59.318Z,101691.91
2023-02-01T12:14:33.629Z,101683.72
2023-02-01T12:17:17.811Z,101692.38
2023-02-01T12:19:51.807Z,101677.34
2023-02-01T12:22:27.575Z,101675.78
2023-02-01T12:25:00.364Z,101688.16
2023-02-01T12:27:36.967Z,101676.59
2023-02-01T12:30:15.656Z,101689.03
2023-02-01T12:32:50.429Z,101688.38
2023-02-01T12:35:37.722Z,101672.88
2023-02-01T12:38:12.630Z,101672.88
2023-02-01T12:40:47.671Z,101667.97
2023-02-01T12:43:16.347Z,101662.44
2023-02-01T12:45:44.052Z,101669.88
2023-02-01T12:48:19.782Z,101664.38
2023-02-01T12:50:48.420Z,101676.00
2023-02-01T12:53:18.517Z,101671.91
2023-02-01T12:55:50.505Z,101663.28
2023-02-01T12:58:19.947Z,101676.41
2023-02-01T13:00:48.332Z,101667.13
2023-02-01T13:03:21.046Z,101654.22
2023-02-01T13:05:51.177Z,101664.78
2023-02-01T13:08:22.145Z,101667.13
2023-02-01T13:10:55.357Z,101653.88
2023-02-01T13:13:24.987Z,101655.19
2023-02-01T13:15:55.420Z,101645.59
2023-02-01T13:18:22.575Z,101632.91
2023-02-01T13:20:53.463Z,101625.22
2023-02-01T13:23:24.548Z,101638.59
2023-02-01T13:25:52.172Z,101636.91
2023-02-01T13:28:20.901Z,101634.81
2023-02-01T13:30:58.600Z,101645.91
2023-02-01T13:33:53.776Z,101622.88
2023-02-01T13:36:29.040Z,101649.63
2023-02-01T13:39:13.447Z,101626.63
2023-02-01T13:41:42.573Z,101639.53
2023-02-01T13:44:14.507Z,101635.94
2023-02-01T13:46:42.265Z,101639.03
2023-02-01T13:49:18.542Z,101638.47
2023-02-01T13:51:46.448Z,101647.94
2023-02-01T13:54:26.273Z,101653.59
2023-02-01T13:56:53.222Z,101659.38
2023-02-01T13:59:52.752Z,101669.41
2023-02-01T14:02:38.368Z,101659.50
2023-02-01T14:05:05.005Z,101658.06
2023-02-01T14:07:31.428Z,101652.75
2023-02-01T14:09:59.157Z,101665.78
2023-02-01T14:12:45.647Z,101649.72
2023-02-01T14:15:20.274Z,101671.69
2023-02-01T14:17:46.743Z,101671.56
2023-02-01T14:20:46.213Z,101685.13
2023-02-01T14:23:14.923Z,101666.25
2023-02-01T14:25:45.313Z,101679.50
2023-02-01T14:28:12.973Z,101679.50
2023-02-01T14:30:41.935Z,101683.97
2023-02-01T14:33:19.959Z,101685.16
2023-02-01T14:36:03.406Z,101681.09
2023-02-01T14:38:29.806Z,101684.69
2023-02-01T14:41:10.771Z,101683.00
2023-02-01T14:43:50.423Z,101680.00
2023-02-01T14:46:16.801Z,101684.56
2023-02-01T14:48:44.800Z,101685.78
2023-02-01T14:51:14.209Z,101690.00
2023-02-01T14:53:41.566Z,101687.22
2023-02-01T14:56:12.560Z,101676.88
2023-02-01T14:58:42.090Z,101686.16
2023-02-01T15:01:16.908Z,101680.97
2023-02-01T15:03:47.971Z,101681.69
2023-02-01T15:06:26.305Z,101693.47
2023-02-01T15:08:54.563Z,101696.38
2023-02-01T15:11:22.233Z,101695.06
2023-02-01T15:13:49.290Z,101701.66
2023-02-01T15:16:16.693Z,101702.59
2023-02-01T15:18:43.058Z,101706.19
2023-02-01T15:21:28.280Z,101704.66
2023-02-01T15:24:11.079Z,101694.44
2023-02-01T15:26:38.919Z,101709.56
2023-02-01T15:29:05.249Z,101707.16
2023-02-01T15:31:35.592Z,101709.56
2023-02-01T15:34:02.039Z,101716.66
2023-02-01T15:36:28.349Z,101713.16
2023-02-01T15:39:09.524Z,101716.91
2023-02-01T15:41:35.885Z,101715.34
2023-02-01T15:44:13.693Z,101708.38
2023-02-01T15:46:41.286Z,101715.34
2023-02-01T15:49:17.452Z,101710.28
2023-02-01T15:51:45.246Z,101724.84
2023-02-01T15:54:17.188Z,101718.00
2023-02-01T15:56:43.525Z,101712.22
2023-02-01T15:59:16.952Z,101706.69
2023-02-01T16:01:43.568Z,101714.38
2023-02-01T16:04:16.482Z,101724.00
2023-02-01T16:06:46.451Z,101712.22
2023-02-01T16:09:14.113Z,101725.19
2023-02-01T16:11:42.113Z,101717.03
2023-02-01T16:14:08.436Z,101724.47
2023-02-01T16:16:36.104Z,101726.28
2023-02-01T16:19:02.471Z,101727.50
2023-02-01T16:21:28.784Z,101730.25
2023-02-01T16:23:55.103Z,101729.53
2023-02-01T16:26:21.689Z,101725.06
2023-02-01T16:28:48.410Z,101725.06
2023-02-01T16:31:15.706Z,101737.34
2023-02-01T16:33:43.427Z,101730.00
2023-02-01T16:36:10.616Z,101738.53
2023-02-01T16:38:36.991Z,101740.00
2023-02-01T16:41:04.863Z,101739.16
2023-02-01T16:43:31.214Z,101737.72
2023-02-01T16:46:00.477Z,101738.22
2023-02-01T16:48:27.516Z,101746.63
2023-02-01T16:50:56.895Z,101746.38
2023-02-01T16:53:23.972Z,101751.03
2023-02-01T16:55:50.512Z,101753.25
2023-02-01T16:58:17.319Z,101747.13
2023-02-01T17:00:43.940Z,101767.44
2023-02-01T17:03:10.732Z,101764.06
2023-02-01T17:05:37.133Z,101760.22
2023-02-01T17:08:06.484Z,101767.78
2023-02-01T17:10:34.245Z,101760.56
2023-02-01T17:13:01.277Z,101772.25
2023-02-01T17:15:29.680Z,101781.50
2023-02-01T17:17:56.086Z,101773.31
2023-02-01T17:20:23.984Z,101773.31
2023-02-01T17:22:51.215Z,101770.44
2023-02-01T17:25:20.269Z,101786.81
2023-02-01T17:27:46.603Z,101778.34
2023-02-01T17:30:13.559Z,101776.94
2023-02-01T17:32:40.278Z,101773.56
2023-02-01T17:35:14.399Z,101786.06
2023-02-01T17:37:40.705Z,101788.94
2023-02-01T17:40:07.745Z,101786.03
2023-02-01T17:42:37.383Z,101790.50
2023-02-01T17:45:15.689Z,101785.56
2023-02-01T17:47:42.031Z,101788.72
2023-02-01T17:50:08.981Z,101799.41
2023-02-01T17:52:35.309Z,101795.66
2023-02-01T17:55:01.850Z,101800.97
2023-02-01T17:57:28.160Z,101809.63
2023-02-01T17:59:55.820Z,101806.59
2023-02-01T18:02:25.554Z,101817.81
2023-02-01T18:04:52.337Z,101808.09
2023-02-01T18:07:18.667Z,101808.72
2023-02-01T18:09:45.035Z,101800.25
2023-02-01T18:12:15.756Z,101803.25
2023-02-01T18:14:42.085Z,101798.56
2023-02-01T18:17:09.759Z,101787.13
2023-02-01T18:19:36.088Z,101796.50
2023-02-01T18:22:02.421Z,101794.97
2023-02-01T18:24:28.742Z,101782.81
2023-02-01T18:26:55.095Z,101800.47
2023-02-01T18:29:21.503Z,101787.88
2023-02-01T18:31:48.678Z,101788.63
2023-02-01T18:34:16.829Z,101793.06
2023-02-01T18:36:43.135Z,101792.22
2023-02-01T18:39:09.452Z,101791.59
2023-02-01T18:41:35.796Z,101784.63
2023-02-01T18:44:02.116Z,101785.75
2023-02-01T18:46:28.458Z,101784.63
2023-02-01T18:48:54.874Z,101797.63
2023-02-01T18:51:22.526Z,101793.53
2023-02-01T18:53:48.881Z,101788.63
2023-02-01T18:56:16.087Z,101787.78
2023-02-01T18:58:42.417Z,101791.91
2023-02-01T19:01:09.740Z,101787.44
2023-02-01T19:03:44.323Z,101782.78
2023-02-01T19:06:13.524Z,101781.09
2023-02-01T19:08:41.167Z,101775.00
2023-02-01T19:11:08.366Z,101784.91
2023-02-01T19:13:34.694Z,101786.38
2023-02-01T19:16:05.304Z,101774.53
2023-02-01T19:18:31.651Z,101780.78
2023-02-01T19:21:02.293Z,101788.63
2023-02-01T19:23:28.593Z,101784.63
2023-02-01T19:25:56.286Z,101782.38
2023-02-01T19:28:22.573Z,101781.91
2023-02-01T19:30:49.004Z,101795.50
2023-02-01T19:33:15.880Z,101785.75
2023-02-01T19:35:42.214Z,101786.81
2023-02-01T19:38:08.572Z,101785.13
2023-02-01T19:40:34.882Z,101797.63
2023-02-01T19:43:02.513Z,101784.19
2023-02-01T19:45:28.918Z,101782.38
2023-02-01T19:47:55.216Z,101783.50
2023-02-01T19:50:22.295Z,101785.19
2023-02-01T19:52:48.801Z,101783.72
2023-02-01T19:55:15.161Z,101786.50
2023-02-01T19:57:41.496Z,101782.53
2023-02-01T20:00:12.753Z,101793.38
2023-02-01T20:02:39.180Z,101785.41
2023-02-01T20:05:05.974Z,101792.91
2023-02-01T20:07:32.304Z,101794.31
2023-02-01T20:09:58.610Z,101791.22
2023-02-01T20:12:24.901Z,101787.34
2023-02-01T20:14:51.216Z,101791.91
2023-02-01T20:17:18.963Z,101781.94
2023-02-01T20:19:45.287Z,101783.72
2023-02-01T20:22:11.581Z,101791.44
2023-02-01T20:24:37.884Z,101789.41
2023-02-01T20:27:05.128Z,101787.34
2023-02-01T20:29:31.544Z,101791.91
2023-02-01T20:31:57.869Z,101794.31
2023-02-01T20:34:25.542Z,101802.03
2023-02-01T20:36:51.872Z,101791.78
2023-02-01T20:39:18.200Z,101794.56
2023-02-01T20:41:44.583Z,101793.53
2023-02-01T20:44:10.884Z,101794.81
2023-02-01T20:46:37.243Z,101797.28
2023-02-01T20:49:03.593Z,101799.38
2023-02-01T20:51:31.236Z,101797.94
2023-02-01T20:53:57.568Z,101793.72
2023-02-01T20:56:23.912Z,101801.31
2023-02-01T20:58:50.226Z,101802.03
2023-02-01T21:01:16.599Z,101797.69
2023-02-01T21:03:42.948Z,101797.03
2023-02-01T21:06:10.575Z,101813.09
2023-02-01T21:08:38.575Z,101808.91
2023-02-01T21:11:06.045Z,101814.66
2023-02-01T21:13:33.042Z,101809.97
2023-02-01T21:15:59.466Z,101816.97
2023-02-01T21:18:25.755Z,101820.56
2023-02-01T21:20:52.095Z,101808.16
2023-02-01T21:23:18.713Z,101827.56
2023-02-01T21:25:46.382Z,101815.72
2023-02-01T21:28:12.985Z,101823.09
2023-02-01T21:30:39.344Z,101819.63
2023-02-01T21:33:05.792Z,101818.16
2023-02-01T21:35:32.250Z,101829.00
2023-02-01T21:37:58.529Z,101829.84
2023-02-01T21:40:24.866Z,101825.38
2023-02-01T21:42:52.568Z,101828.28
2023-02-01T21:45:18.864Z,101828.63
2023-02-01T21:47:45.180Z,101835.50
2023-02-01T21:50:14.094Z,101830.78
2023-02-01T21:52:40.520Z,101825.38
2023-02-01T21:55:07.320Z,101834.03
2023-02-01T21:57:33.987Z,101842.34
2023-02-01T22:00:02.057Z,101838.53
2023-02-01T22:02:28.502Z,101837.66
2023-02-01T22:04:54.862Z,101840.69
2023-02-01T22:07:21.150Z,101837.94
2023-02-01T22:09:47.475Z,101835.28
2023-02-01T22:12:13.996Z,101850.16
2023-02-01T22:14:40.427Z,101857.28
2023-02-01T22:17:08.110Z,101861.50
2023-02-01T22:19:34.447Z,101852.59
2023-02-01T22:22:00.761Z,101852.56
2023-02-01T22:24:27.060Z,101859.78
2023-02-01T22:26:53.504Z,101849.69
2023-02-01T22:29:19.831Z,101876.19
2023-02-01T22:31:46.350Z,101868.81
2023-02-01T22:34:14.169Z,101878.25
2023-02-01T22:36:40.507Z,101874.34
2023-02-01T22:39:06.999Z,101870.22
2023-02-01T22:41:33.308Z,101867.91
2023-02-01T22:43:59.695Z,101870.47
2023-02-01T22:46:27.474Z,101863.31
2023-02-01T22:48:54.172Z,101877.00
2023-02-01T22:51:22.821Z,101875.34
2023-02-01T22:53:49.434Z,101870.91
2023-02-01T22:56:15.751Z,101865.28
2023-02-01T22:58:42.070Z,101875.72
2023-02-01T23:01:09.103Z,101871.97
2023-02-01T23:03:35.987Z,101868.00
2023-02-01T23:06:02.985Z,101863.78
2023-02-01T23:08:30.909Z,101870.00
2023-02-01T23:10:58.383Z,101864.97
2023-02-01T23:13:24.712Z,101868.69
2023-02-01T23:15:51.098Z,101868.38
2023-02-01T23:18:17.435Z,101870.38
2023-02-01T23:20:43.763Z,101860.31
2023-02-01T23:23:10.103Z,101866.22
2023-02-01T23:25:37.773Z,101871.75
2023-02-01T23:28:04.257Z,101875.25
2023-02-01T23:30:30.544Z,101875.34
2023-02-01T23:32:56.844Z,101887.53
2023-02-01T23:35:23.448Z,101889.31
2023-02-01T23:37:50.085Z,101884.25
2023-02-01T23:40:16.525Z,101887.84
2023-02-01T23:42:44.196Z,101891.75
2023-02-01T23:45:10.818Z,101890.38
2023-02-01T23:47:37.138Z,101893.94
2023-02-01T23:50:03.509Z,101899.13
2023-02-01T23:52:29.856Z,101894.72
2023-02-01T23:54:56.183Z,101897.16
2023-02-01T23:57:23.065Z,101900.63
2023-02-01T23:59:50.756Z,101900.28
